Time;durP1;ratioP1;P1;durP2;ratioP2;P2;SDS_P1;SDS_P2;PMS_P1;PMS_P2;Temp;Humidity;BMP_temperature;BMP_pressure;BME280_temperature;BME280_humidity;BME280_pressure;Samples;Min_cycle;Max_cycle;Signal;HPM_P1;HPM_P2
2022/08/05 00:01:35;;;;;;;10.20;4.75;;;23.40;92.10;;;;;;5037591;28;20108;-77
2022/08/05 00:04:01;;;;;;;14.95;4.78;;;23.40;92.30;;;;;;5035185;28;20076;-77
2022/08/05 00:06:26;;;;;;;12.48;4.80;;;23.30;92.50;;;;;;5017643;28;20021;-76
2022/08/05 00:08:52;;;;;;;14.55;5.50;;;23.30;92.90;;;;;;5034824;28;20052;-77
2022/08/05 00:11:18;;;;;;;13.30;4.53;;;23.30;93.40;;;;;;5000309;28;20017;-78
2022/08/05 00:13:44;;;;;;;14.52;4.80;;;23.30;93.60;;;;;;5034528;28;20060;-77
2022/08/05 00:16:12;;;;;;;10.30;5.00;;;23.30;93.90;;;;;;5034217;28;20466;-78
2022/08/05 00:18:39;;;;;;;13.50;4.88;;;23.30;94.30;;;;;;5036230;28;20025;-77
2022/08/05 00:21:05;;;;;;;9.25;4.65;;;23.20;94.70;;;;;;5035543;28;20025;-78
2022/08/05 00:23:31;;;;;;;10.40;5.40;;;23.20;95.30;;;;;;5016370;28;20432;-76
2022/08/05 00:25:57;;;;;;;13.07;5.35;;;23.20;95.90;;;;;;5034352;28;20049;-78
2022/08/05 00:28:23;;;;;;;9.23;4.90;;;23.10;96.40;;;;;;5034601;28;20104;-77
2022/08/05 00:30:48;;;;;;;13.38;4.60;;;23.10;96.80;;;;;;5034441;28;20018;-78
2022/08/05 00:33:17;;;;;;;12.02;5.38;;;23.00;97.40;;;;;;5034500;28;20067;-78
2022/08/05 00:35:43;;;;;;;12.73;5.47;;;23.00;97.90;;;;;;5034771;28;20036;-76
2022/08/05 00:38:09;;;;;;;9.15;5.28;;;23.00;98.40;;;;;;5034704;28;20620;-76
2022/08/05 00:40:46;;;;;;;8.35;4.75;;;22.90;98.80;;;;;;5034362;28;20053;-77
2022/08/05 00:43:12;;;;;;;14.02;6.10;;;22.90;99.30;;;;;;5016904;28;20099;-77
2022/08/05 00:45:37;;;;;;;17.15;5.80;;;22.90;99.50;;;;;;5034250;28;20033;-78
2022/08/05 00:48:03;;;;;;;9.43;5.72;;;22.90;99.90;;;;;;5044123;28;20057;-78
2022/08/05 00:50:29;;;;;;;13.25;5.35;;;22.80;99.90;;;;;;5034101;28;20113;-78
2022/08/05 00:52:55;;;;;;;12.85;5.15;;;22.80;99.90;;;;;;5035077;28;20676;-76
2022/08/05 00:55:22;;;;;;;10.25;5.22;;;22.80;99.90;;;;;;5038603;28;20112;-77
2022/08/05 00:57:48;;;;;;;13.18;5.47;;;22.70;99.90;;;;;;5034400;28;20034;-78
2022/08/05 01:00:14;;;;;;;12.60;5.13;;;22.70;99.90;;;;;;5033202;28;20028;-76
2022/08/05 01:02:39;;;;;;;11.38;5.25;;;22.70;99.90;;;;;;5033191;28;20057;-77
2022/08/05 01:05:05;;;;;;;14.38;5.38;;;22.70;99.90;;;;;;5032928;28;20061;-78
2022/08/05 01:07:31;;;;;;;12.52;4.43;;;22.70;99.90;;;;;;5032916;28;20025;-77
2022/08/05 01:09:57;;;;;;;10.32;5.68;;;22.60;99.90;;;;;;5033464;28;20156;-77
2022/08/05 01:12:24;;;;;;;13.15;5.57;;;22.60;99.90;;;;;;5033258;28;20026;-77
2022/08/05 01:15:04;;;;;;;8.85;4.95;;;22.60;99.90;;;;;;5033045;28;20025;-78
2022/08/05 01:17:59;;;;;;;15.88;5.72;;;22.60;99.90;;;;;;5032253;28;20571;-79
2022/08/05 01:20:49;;;;;;;17.00;6.15;;;22.60;99.90;;;;;;5014147;28;20486;-77
2022/08/05 01:23:22;;;;;;;16.70;5.80;;;22.50;99.90;;;;;;5035290;28;20029;-78
2022/08/05 01:26:11;;;;;;;13.15;5.85;;;22.50;99.90;;;;;;5017907;28;20052;-77
2022/08/05 01:28:49;;;;;;;13.52;6.63;;;22.50;99.90;;;;;;5033210;28;20068;-77
2022/08/05 01:31:44;;;;;;;17.77;5.50;;;22.40;99.90;;;;;;5032629;28;20029;-77
2022/08/05 01:34:31;;;;;;;9.25;5.43;;;22.40;99.90;;;;;;5032621;28;20389;-77
2022/08/05 01:37:15;;;;;;;8.63;5.38;;;22.40;99.90;;;;;;5032774;28;20456;-77
2022/08/05 01:39:45;;;;;;;9.75;5.47;;;22.30;99.90;;;;;;5035674;28;20026;-79
2022/08/05 01:42:18;;;;;;;15.32;5.95;;;22.30;99.90;;;;;;5032570;28;20449;-76
2022/08/05 01:44:46;;;;;;;10.27;5.68;;;22.30;99.90;;;;;;5032416;28;20056;-77
2022/08/05 01:47:16;;;;;;;8.27;5.68;;;22.20;99.90;;;;;;5032531;28;20095;-77
2022/08/05 01:49:43;;;;;;;10.25;5.68;;;22.20;99.90;;;;;;5032516;28;20033;-78
2022/08/05 01:52:10;;;;;;;11.52;5.88;;;22.20;99.90;;;;;;5032980;28;20025;-76
2022/08/05 01:54:43;;;;;;;9.55;5.68;;;22.20;99.90;;;;;;5032380;28;20067;-78
2022/08/05 01:57:11;;;;;;;10.52;5.15;;;22.20;99.90;;;;;;5033184;28;20087;-80
2022/08/05 01:59:39;;;;;;;8.32;5.57;;;22.20;99.90;;;;;;5034192;28;20045;-77
2022/08/05 02:02:07;;;;;;;14.23;5.88;;;22.10;99.90;;;;;;5016927;28;20029;-77
2022/08/05 02:04:36;;;;;;;8.75;5.22;;;22.10;99.90;;;;;;5034116;28;20113;-78
2022/08/05 02:07:03;;;;;;;8.85;5.38;;;22.00;99.90;;;;;;5034008;28;20025;-78
2022/08/05 02:09:29;;;;;;;12.85;6.10;;;22.00;99.90;;;;;;5047662;28;20022;-77
2022/08/05 02:12:30;;;;;;;11.32;5.70;;;22.00;99.90;;;;;;5032355;28;20025;-78
2022/08/05 02:15:19;;;;;;;9.73;5.45;;;21.90;99.90;;;;;;5032382;28;20034;-78
2022/08/05 02:18:02;;;;;;;12.52;5.57;;;21.90;99.90;;;;;;5021549;28;20084;-78
2022/08/05 02:20:35;;;;;;;8.18;5.05;;;21.90;99.90;;;;;;5014945;28;20136;-78
2022/08/05 02:23:07;;;;;;;9.35;5.38;;;21.90;99.90;;;;;;5032684;28;20047;-77
2022/08/05 02:25:35;;;;;;;8.27;5.18;;;21.80;99.90;;;;;;5032579;28;20378;-77
2022/08/05 02:28:03;;;;;;;7.32;5.45;;;21.80;99.90;;;;;;5038661;28;20022;-77
2022/08/05 02:30:46;;;;;;;8.63;5.35;;;21.90;99.90;;;;;;5038751;28;20056;-77
2022/08/05 02:33:16;;;;;;;14.70;5.40;;;21.80;99.90;;;;;;5020864;28;20056;-77
2022/08/05 02:35:44;;;;;;;10.43;5.45;;;21.80;99.90;;;;;;5038687;28;20037;-78
2022/08/05 02:38:12;;;;;;;12.27;5.75;;;21.80;99.90;;;;;;5039516;28;20564;-78
2022/08/05 02:40:42;;;;;;;8.90;5.45;;;21.70;99.90;;;;;;5041639;28;20084;-78
2022/08/05 02:43:10;;;;;;;9.02;5.43;;;21.70;99.90;;;;;;5041625;28;20789;-77
2022/08/05 02:45:39;;;;;;;8.30;5.38;;;21.70;99.90;;;;;;5041243;28;20033;-78
2022/08/05 02:48:07;;;;;;;11.15;5.75;;;21.70;99.90;;;;;;5039487;28;20017;-77
2022/08/05 02:50:35;;;;;;;8.45;5.47;;;21.70;99.90;;;;;;5039474;28;20101;-78
2022/08/05 02:53:01;;;;;;;11.15;5.50;;;21.60;99.90;;;;;;5041274;28;20021;-78
2022/08/05 02:55:29;;;;;;;12.77;5.90;;;21.60;99.90;;;;;;5040461;28;20025;-77
2022/08/05 02:57:57;;;;;;;8.82;5.55;;;21.60;99.90;;;;;;5040960;28;20037;-79
2022/08/05 03:00:23;;;;;;;12.95;5.55;;;21.60;99.90;;;;;;5040228;28;20041;-79
2022/08/05 03:02:50;;;;;;;12.38;5.75;;;21.60;99.90;;;;;;5009453;28;20555;-78
2022/08/05 03:05:18;;;;;;;11.05;5.55;;;21.60;99.90;;;;;;5041273;28;20039;-78
2022/08/05 03:07:45;;;;;;;9.95;5.45;;;21.60;99.90;;;;;;5041595;28;20074;-77
2022/08/05 03:10:14;;;;;;;12.48;6.13;;;21.50;99.90;;;;;;5042209;28;20098;-77
2022/08/05 03:12:40;;;;;;;16.67;5.35;;;21.50;99.90;;;;;;5040946;28;20469;-77
2022/08/05 03:15:08;;;;;;;14.60;5.97;;;21.50;99.90;;;;;;5021299;28;20036;-77
2022/08/05 03:17:34;;;;;;;12.70;5.55;;;21.50;99.90;;;;;;5039290;28;20018;-77
2022/08/05 03:20:00;;;;;;;11.18;5.68;;;21.50;99.90;;;;;;5038702;28;20072;-77
2022/08/05 03:22:26;;;;;;;10.73;5.28;;;21.50;99.90;;;;;;5020935;28;20057;-77
2022/08/05 03:24:53;;;;;;;12.35;5.38;;;21.50;99.90;;;;;;5038666;28;20055;-77
2022/08/05 03:27:20;;;;;;;11.98;5.47;;;21.40;99.90;;;;;;5020896;28;20113;-77
2022/08/05 03:29:46;;;;;;;11.30;5.05;;;21.40;99.90;;;;;;5039617;28;20388;-77
2022/08/05 03:32:18;;;;;;;14.23;5.57;;;21.40;99.90;;;;;;5050585;28;20021;-78
2022/08/05 03:34:44;;;;;;;10.38;5.88;;;21.40;99.90;;;;;;5043197;28;20503;-77
2022/08/05 03:37:10;;;;;;;10.30;5.25;;;21.40;99.90;;;;;;5039111;28;20072;-77
2022/08/05 03:39:37;;;;;;;8.20;5.93;;;21.40;99.90;;;;;;5018231;28;20040;-78
2022/08/05 03:42:03;;;;;;;12.80;5.55;;;21.40;99.90;;;;;;5035361;28;20033;-78
2022/08/05 03:44:29;;;;;;;7.38;5.15;;;21.40;99.90;;;;;;5035719;28;20033;-78
2022/08/05 03:46:55;;;;;;;11.80;5.43;;;21.40;99.90;;;;;;5035699;28;20029;-78
2022/08/05 03:49:20;;;;;;;10.30;5.53;;;21.40;99.90;;;;;;5017814;28;20057;-77
2022/08/05 03:51:59;;;;;;;13.02;5.88;;;21.40;99.90;;;;;;5038870;28;20048;-77
2022/08/05 03:54:57;;;;;;;12.27;6.00;;;21.40;99.90;;;;;;5037821;28;20117;-78
2022/08/05 03:57:28;;;;;;;9.07;5.72;;;21.40;99.90;;;;;;5034514;28;20021;-77
2022/08/05 04:00:03;;;;;;;11.15;5.57;;;21.40;99.90;;;;;;5034780;28;20068;-78
2022/08/05 04:02:41;;;;;;;12.05;6.50;;;21.40;99.90;;;;;;5039126;28;20451;-77
2022/08/05 04:05:08;;;;;;;13.85;5.30;;;21.50;99.90;;;;;;5038365;28;20033;-77
2022/08/05 04:07:35;;;;;;;7.43;5.60;;;21.50;99.90;;;;;;5034589;28;20073;-78
2022/08/05 04:10:02;;;;;;;14.38;6.07;;;21.50;99.90;;;;;;5034730;28;20469;-78
2022/08/05 04:12:28;;;;;;;11.32;5.70;;;21.50;99.90;;;;;;5034603;28;20029;-77
2022/08/05 04:14:54;;;;;;;15.93;6.03;;;21.60;99.90;;;;;;5034983;28;20061;-77
2022/08/05 04:17:20;;;;;;;16.23;6.00;;;21.60;99.90;;;;;;5034934;28;20030;-77
2022/08/05 04:19:47;;;;;;;13.30;6.18;;;21.70;99.90;;;;;;5015825;28;20036;-77
2022/08/05 04:22:13;;;;;;;12.00;6.30;;;21.70;99.90;;;;;;5034388;28;20397;-77
2022/08/05 04:24:41;;;;;;;11.10;5.90;;;21.80;99.90;;;;;;5035971;28;20052;-78
2022/08/05 04:27:06;;;;;;;9.52;5.32;;;21.90;99.90;;;;;;5028191;28;20478;-77
2022/08/05 04:29:32;;;;;;;15.85;5.55;;;21.90;99.90;;;;;;5036464;28;20113;-77
2022/08/05 04:31:58;;;;;;;12.02;5.93;;;22.00;99.90;;;;;;5034625;28;20105;-77
2022/08/05 04:34:24;;;;;;;12.25;5.65;;;22.10;99.90;;;;;;5033881;28;20129;-77
2022/08/05 04:36:50;;;;;;;9.85;5.10;;;22.20;99.90;;;;;;5033864;28;20025;-77
2022/08/05 04:39:17;;;;;;;9.05;5.05;;;22.20;99.90;;;;;;5034606;28;20079;-77
2022/08/05 04:41:43;;;;;;;10.18;5.82;;;22.30;99.90;;;;;;5020817;28;20030;-77
2022/08/05 04:44:08;;;;;;;8.88;5.70;;;22.40;99.90;;;;;;5042413;28;20032;-78
2022/08/05 04:46:34;;;;;;;10.75;5.43;;;22.40;99.90;;;;;;5040053;28;20028;-77
2022/08/05 04:49:00;;;;;;;11.75;5.38;;;22.50;99.90;;;;;;5035108;28;20033;-78
2022/08/05 04:51:26;;;;;;;10.82;4.65;;;22.60;99.90;;;;;;5073690;22;20072;-89
2022/08/05 04:53:51;;;;;;;9.02;5.32;;;22.70;99.90;;;;;;5051295;28;20041;-86
2022/08/05 04:56:17;;;;;;;7.90;4.88;;;22.70;99.90;;;;;;5051829;28;20029;-87
2022/08/05 04:58:43;;;;;;;9.65;5.10;;;22.70;99.90;;;;;;5034367;28;20044;-88
2022/08/05 05:01:09;;;;;;;8.65;4.95;;;22.80;99.90;;;;;;5042015;28;20104;-89
2022/08/05 05:03:35;;;;;;;10.02;5.00;;;22.90;99.80;;;;;;5037932;28;20041;-85
2022/08/05 05:06:01;;;;;;;8.98;4.88;;;23.00;99.40;;;;;;5054769;28;20062;-89
2022/08/05 05:08:31;;;;;;;10.65;4.95;;;23.10;99.20;;;;;;5041075;28;20021;-88
2022/08/05 05:10:57;;;;;;;12.63;4.72;;;23.10;99.10;;;;;;5041374;28;20094;-88
2022/08/05 05:13:22;;;;;;;9.60;5.13;;;23.20;99.10;;;;;;5025202;28;20033;-88
2022/08/05 05:15:48;;;;;;;12.20;5.65;;;23.20;99.00;;;;;;5041473;28;20021;-89
2022/08/05 05:18:15;;;;;;;10.30;5.43;;;23.30;98.90;;;;;;5041508;28;20081;-90
2022/08/05 05:20:45;;;;;;;14.80;5.68;;;23.30;98.80;;;;;;5041985;28;20017;-89
2022/08/05 05:23:12;;;;;;;6.43;4.35;;;23.40;98.50;;;;;;5041150;28;20032;-90
2022/08/05 05:25:43;;;;;;;12.48;5.55;;;23.40;98.60;;;;;;5040239;28;20103;-88
2022/08/05 05:28:12;;;;;;;12.50;4.82;;;23.80;97.90;;;;;;5039815;28;20021;-88
2022/08/05 05:30:39;;;;;;;10.15;5.13;;;23.90;97.70;;;;;;5039354;28;20045;-90
2022/08/05 05:33:06;;;;;;;13.60;4.90;;;23.80;97.60;;;;;;5040089;28;20024;-89
2022/08/05 05:35:33;;;;;;;16.63;5.13;;;23.90;97.60;;;;;;5040425;28;20089;-90
2022/08/05 05:38:02;;;;;;;14.88;5.20;;;23.90;97.50;;;;;;5024194;28;20072;-88
2022/08/05 05:40:29;;;;;;;15.25;5.10;;;23.80;97.50;;;;;;5057212;28;20020;-88
2022/08/05 05:42:55;;;;;;;9.52;4.90;;;23.80;97.60;;;;;;5057710;28;20032;-89
2022/08/05 05:45:21;;;;;;;14.60;5.07;;;23.70;97.70;;;;;;5057657;28;20049;-90
2022/08/05 05:47:48;;;;;;;12.18;5.07;;;23.70;97.80;;;;;;5056476;28;20081;-89
2022/08/05 05:50:16;;;;;;;8.35;4.82;;;23.90;97.90;;;;;;5022928;28;20025;-89
2022/08/05 05:52:42;;;;;;;10.20;4.93;;;24.20;97.40;;;;;;5058576;28;20017;-88
2022/08/05 05:55:11;;;;;;;8.75;5.40;;;24.60;96.90;;;;;;5017845;28;20038;-88
2022/08/05 05:57:40;;;;;;;12.50;5.28;;;24.80;96.60;;;;;;5019894;28;20014;-88
2022/08/05 06:00:09;;;;;;;8.80;4.40;;;24.80;96.40;;;;;;5020704;28;20077;-87
2022/08/05 06:02:38;;;;;;;13.50;5.25;;;24.80;96.40;;;;;;5037311;28;20042;-87
2022/08/05 06:05:07;;;;;;;13.45;5.28;;;24.80;96.50;;;;;;5037398;28;20034;-85
2022/08/05 06:07:33;;;;;;;9.52;4.63;;;25.00;96.80;;;;;;5023267;28;20025;-84
2022/08/05 06:09:58;;;;;;;9.95;5.13;;;25.10;96.60;;;;;;5057203;28;20017;-85
2022/08/05 06:12:24;;;;;;;18.05;6.05;;;25.20;96.30;;;;;;5057347;28;20017;-84
2022/08/05 06:14:50;;;;;;;18.58;5.50;;;25.30;96.10;;;;;;5057002;28;20022;-85
2022/08/05 06:17:16;;;;;;;11.95;4.72;;;25.40;96.00;;;;;;5056320;28;20021;-84
2022/08/05 06:19:42;;;;;;;13.10;4.70;;;25.40;96.10;;;;;;5033338;28;20085;-86
2022/08/05 06:22:08;;;;;;;15.80;4.80;;;25.50;96.00;;;;;;5029812;28;20026;-87
2022/08/05 06:24:35;;;;;;;9.60;4.70;;;25.50;95.90;;;;;;5027580;28;20026;-87
2022/08/05 06:27:01;;;;;;;16.38;5.30;;;25.50;96.00;;;;;;5027711;28;20060;-87
2022/08/05 06:29:28;;;;;;;13.63;5.93;;;25.50;96.00;;;;;;5010896;28;20121;-88
2022/08/05 06:31:57;;;;;;;10.65;4.97;;;25.60;96.00;;;;;;5011191;28;20057;-88
2022/08/05 06:34:24;;;;;;;12.40;5.57;;;25.70;96.00;;;;;;5017617;28;20090;-90
2022/08/05 06:36:50;;;;;;;12.25;5.75;;;25.80;95.90;;;;;;5021164;28;20029;-90
2022/08/05 06:39:16;;;;;;;8.32;5.00;;;25.90;95.80;;;;;;5020683;28;20022;-89
2022/08/05 06:41:42;;;;;;;12.27;5.20;;;25.90;95.80;;;;;;5046709;23;20067;-90
2022/08/05 06:44:11;;;;;;;19.00;5.45;;;26.00;95.70;;;;;;5024002;28;20044;-91
2022/08/05 06:46:37;;;;;;;12.48;5.25;;;26.10;95.80;;;;;;5039983;28;20022;-92
2022/08/05 06:49:09;;;;;;;10.75;5.70;;;26.00;95.70;;;;;;5018950;28;20022;-87
2022/08/05 06:51:39;;;;;;;13.63;5.50;;;26.10;95.50;;;;;;5011046;28;20033;-87
2022/08/05 06:54:06;;;;;;;11.43;5.32;;;26.10;95.40;;;;;;5011044;28;20037;-89
2022/08/05 06:56:32;;;;;;;7.78;5.20;;;26.10;95.40;;;;;;5010090;28;20090;-90
2022/08/05 06:58:58;;;;;;;13.05;5.75;;;26.20;95.20;;;;;;5025015;28;20585;-88
2022/08/05 07:01:24;;;;;;;14.70;5.22;;;26.20;95.30;;;;;;5026013;28;20032;-89
2022/08/05 07:03:50;;;;;;;8.40;5.10;;;26.40;95.20;;;;;;5026935;28;20026;-88
2022/08/05 07:06:16;;;;;;;14.90;5.65;;;26.60;94.80;;;;;;5009800;28;20034;-88
2022/08/05 07:08:43;;;;;;;14.95;5.93;;;26.80;94.60;;;;;;5010052;28;20146;-88
2022/08/05 07:11:10;;;;;;;16.85;5.78;;;26.70;94.40;;;;;;5010166;28;20077;-87
2022/08/05 07:19:05;;;;;;;18.95;5.05;;;26.90;94.30;;;;;;5020241;28;20293;-88
2022/08/05 07:21:31;;;;;;;11.02;4.68;;;26.90;94.30;;;;;;5036520;28;20082;-87
2022/08/05 07:23:57;;;;;;;6.10;4.40;;;27.00;94.20;;;;;;5034349;28;20038;-87
2022/08/05 07:26:23;;;;;;;17.33;4.82;;;27.10;93.90;;;;;;5030356;28;20026;-85
2022/08/05 07:28:52;;;;;;;9.70;5.40;;;27.20;93.40;;;;;;5029298;28;20022;-86
2022/08/05 07:31:18;;;;;;;11.13;5.03;;;27.10;93.60;;;;;;5027804;28;20022;-88
2022/08/05 07:33:44;;;;;;;9.30;4.80;;;27.10;93.50;;;;;;5026687;28;20037;-87
2022/08/05 07:36:10;;;;;;;15.50;5.05;;;27.30;93.70;;;;;;5026459;28;20089;-87
2022/08/05 07:38:36;;;;;;;6.60;4.72;;;27.30;93.60;;;;;;5029266;28;20120;-88
2022/08/05 07:41:07;;;;;;;10.02;4.82;;;27.30;93.20;;;;;;5019653;28;20105;-86
2022/08/05 07:43:33;;;;;;;16.67;5.05;;;27.40;93.50;;;;;;4999672;28;20034;-86
2022/08/05 07:45:59;;;;;;;13.55;5.65;;;27.40;93.40;;;;;;5014744;28;20034;-88
2022/08/05 07:48:25;;;;;;;10.38;5.07;;;27.40;93.50;;;;;;5021064;28;20033;-87
2022/08/05 07:50:51;;;;;;;9.30;4.88;;;27.40;93.30;;;;;;5027820;28;20038;-87
2022/08/05 07:53:17;;;;;;;8.13;4.47;;;27.50;93.10;;;;;;5025529;28;20050;-89
2022/08/05 07:55:42;;;;;;;16.10;5.30;;;27.50;92.60;;;;;;5026061;28;20041;-87
2022/08/05 07:58:08;;;;;;;9.43;5.88;;;27.60;93.00;;;;;;5026514;28;20129;-88
2022/08/05 08:00:34;;;;;;;8.43;4.57;;;27.70;92.80;;;;;;5004750;28;20026;-88
2022/08/05 08:03:00;;;;;;;20.95;9.32;;;27.80;92.80;;;;;;5020814;28;20034;-88
2022/08/05 08:05:26;;;;;;;10.02;4.78;;;27.90;92.70;;;;;;5017153;28;20034;-86
2022/08/05 08:07:54;;;;;;;9.57;4.50;;;27.90;92.20;;;;;;5016593;28;20113;-86
2022/08/05 08:10:21;;;;;;;13.25;4.43;;;27.90;92.10;;;;;;5015826;28;20065;-89
2022/08/05 08:12:48;;;;;;;8.55;4.65;;;28.20;91.80;;;;;;5016981;28;20018;-85
2022/08/05 08:15:13;;;;;;;8.05;4.70;;;28.20;91.60;;;;;;5016168;28;20037;-87
2022/08/05 08:17:39;;;;;;;13.70;4.93;;;28.30;91.60;;;;;;5025871;28;20026;-84
2022/08/05 08:20:06;;;;;;;10.30;5.65;;;28.40;91.50;;;;;;5035842;28;20097;-84
2022/08/05 08:22:32;;;;;;;8.82;4.85;;;28.40;91.50;;;;;;5038044;28;20053;-87
2022/08/05 08:24:58;;;;;;;8.90;4.78;;;28.50;91.50;;;;;;5035167;28;20034;-86
2022/08/05 08:27:24;;;;;;;9.32;4.65;;;28.50;91.30;;;;;;5035980;28;20044;-86
2022/08/05 08:29:49;;;;;;;10.95;5.18;;;28.70;91.40;;;;;;5035931;28;20030;-86
2022/08/05 08:32:15;;;;;;;9.52;4.65;;;28.70;91.20;;;;;;5037945;28;20034;-88
2022/08/05 08:34:41;;;;;;;7.20;4.78;;;28.70;91.00;;;;;;5019460;28;20010;-87
2022/08/05 08:37:07;;;;;;;13.57;5.03;;;28.70;90.80;;;;;;5037974;28;20080;-86
2022/08/05 08:39:33;;;;;;;9.63;4.72;;;28.80;91.10;;;;;;5038281;28;20274;-86
2022/08/05 08:42:01;;;;;;;10.95;4.68;;;28.80;90.60;;;;;;5037743;28;20109;-86
2022/08/05 08:44:30;;;;;;;8.90;4.60;;;28.90;90.60;;;;;;5021954;28;20042;-86
2022/08/05 08:46:56;;;;;;;11.80;4.80;;;28.90;90.40;;;;;;5038818;28;20207;-85
2022/08/05 08:49:23;;;;;;;6.38;4.40;;;29.00;90.40;;;;;;5037931;28;20041;-89
2022/08/05 08:51:57;;;;;;;6.78;4.25;;;29.10;90.30;;;;;;5036840;28;20038;-86
2022/08/05 08:54:25;;;;;;;8.70;4.07;;;29.30;90.10;;;;;;5036735;28;20041;-86
2022/08/05 08:56:51;;;;;;;8.30;3.97;;;29.50;89.90;;;;;;5037034;28;20026;-87
2022/08/05 08:59:18;;;;;;;14.93;4.63;;;29.60;89.80;;;;;;5036444;28;20030;-86
2022/08/05 09:01:44;;;;;;;7.13;3.95;;;29.80;89.60;;;;;;5034336;28;20647;-87
2022/08/05 09:04:12;;;;;;;10.55;4.55;;;29.70;88.80;;;;;;5034070;28;20030;-88
2022/08/05 09:06:38;;;;;;;12.13;4.55;;;29.70;89.00;;;;;;5034484;28;20041;-87
2022/08/05 09:09:04;;;;;;;9.85;4.35;;;29.70;89.80;;;;;;5036473;28;20038;-88
2022/08/05 09:11:32;;;;;;;8.10;4.35;;;29.90;89.00;;;;;;5036169;28;20034;-89
2022/08/05 09:13:59;;;;;;;6.55;4.15;;;29.90;88.40;;;;;;5028781;28;20060;-88
2022/08/05 09:16:26;;;;;;;6.25;4.05;;;29.90;88.00;;;;;;5019685;28;20026;-87
2022/08/05 09:18:52;;;;;;;7.32;4.15;;;29.90;87.60;;;;;;5028721;28;20057;-88
2022/08/05 09:21:18;;;;;;;7.45;4.10;;;29.80;87.60;;;;;;5029297;28;20018;-89
2022/08/05 09:23:45;;;;;;;13.07;4.50;;;29.90;88.20;;;;;;5028642;28;20030;-88
2022/08/05 09:26:18;;;;;;;13.50;4.53;;;30.00;88.10;;;;;;5028029;28;20084;-88
2022/08/05 09:28:46;;;;;;;11.18;4.05;;;30.00;86.80;;;;;;5028918;28;20030;-88
2022/08/05 09:31:14;;;;;;;8.25;4.20;;;30.10;86.80;;;;;;5027896;28;20089;-89
2022/08/05 09:34:01;;;;;;;6.55;4.13;;;30.30;86.30;;;;;;5028128;28;20502;-88
2022/08/05 09:36:43;;;;;;;5.65;3.72;;;30.40;86.00;;;;;;5028024;28;20033;-86
2022/08/05 09:39:11;;;;;;;11.00;4.13;;;30.70;85.40;;;;;;5029559;28;20077;-87
2022/08/05 09:41:57;;;;;;;6.32;3.78;;;31.00;84.60;;;;;;5037830;28;20038;-88
2022/08/05 09:44:41;;;;;;;8.82;4.45;;;31.30;84.00;;;;;;5035513;28;20025;-85
2022/08/05 09:47:14;;;;;;;7.20;4.00;;;32.00;83.00;;;;;;5028530;28;20040;-86
2022/08/05 09:49:41;;;;;;;15.10;4.20;;;32.70;81.40;;;;;;5030620;28;20030;-86
2022/08/05 09:52:36;;;;;;;12.73;4.07;;;33.30;79.80;;;;;;5035158;28;20050;-87
2022/08/05 09:55:10;;;;;;;9.48;4.20;;;34.40;77.50;;;;;;5020014;28;20038;-89
2022/08/05 09:57:39;;;;;;;14.50;4.30;;;35.60;75.40;;;;;;5030786;28;20037;-89
2022/08/05 10:00:12;;;;;;;5.53;3.63;;;36.20;72.70;;;;;;5029186;28;20053;-88
2022/08/05 10:02:42;;;;;;;6.72;4.25;;;36.60;70.40;;;;;;5027459;28;20030;-89
2022/08/05 10:05:19;;;;;;;7.40;3.80;;;37.60;68.70;;;;;;5026334;28;20144;-87
2022/08/05 10:07:56;;;;;;;8.60;3.40;;;38.50;66.80;;;;;;5027114;28;20520;-88
2022/08/05 10:10:36;;;;;;;5.45;3.67;;;39.30;64.10;;;;;;5030304;28;20037;-87
2022/08/05 10:13:03;;;;;;;10.05;3.67;;;39.80;62.50;;;;;;5014655;28;20030;-89
2022/08/05 10:15:30;;;;;;;6.68;3.33;;;41.10;60.20;;;;;;5029424;28;20058;-90
2022/08/05 10:18:11;;;;;;;15.10;3.67;;;42.00;58.30;;;;;;5028032;28;20034;-87
2022/08/05 10:20:44;;;;;;;5.90;3.45;;;43.00;56.10;;;;;;5028451;28;20029;-88
2022/08/05 10:23:16;;;;;;;5.68;3.33;;;44.10;54.00;;;;;;5027086;28;20053;-89
2022/08/05 10:25:42;;;;;;;3.83;3.28;;;44.80;52.90;;;;;;5013357;28;20117;-89
2022/08/05 10:28:08;;;;;;;5.57;3.20;;;46.20;50.80;;;;;;5012035;28;20042;-88
2022/08/05 10:30:35;;;;;;;5.78;3.13;;;46.60;49.60;;;;;;5002622;28;20048;-88
2022/08/05 10:33:02;;;;;;;7.60;3.10;;;46.60;48.30;;;;;;4999206;28;20019;-88
2022/08/05 10:35:28;;;;;;;9.70;2.90;;;46.20;48.30;;;;;;5020684;28;20050;-89
2022/08/05 10:37:55;;;;;;;9.52;2.65;;;45.60;48.50;;;;;;5009922;28;20022;-87
2022/08/05 10:40:42;;;;;;;8.20;2.97;;;45.80;48.30;;;;;;5009494;28;20074;-88
2022/08/05 10:43:30;;;;;;;4.35;2.90;;;46.60;47.30;;;;;;5007698;28;20035;-90
2022/08/05 10:45:58;;;;;;;7.40;2.95;;;47.20;46.50;;;;;;5006715;28;20042;-89
2022/08/05 10:48:40;;;;;;;4.28;3.10;;;48.30;45.80;;;;;;5007776;28;20065;-88
2022/08/05 10:51:15;;;;;;;3.17;2.95;;;49.40;45.00;;;;;;5039957;22;20053;-83
2022/08/05 10:53:43;;;;;;;6.80;3.05;;;50.30;44.10;;;;;;5006801;28;20083;-83
2022/08/05 10:56:11;;;;;;;3.40;3.10;;;49.30;44.20;;;;;;5006856;28;20030;-82
2022/08/05 10:58:48;;;;;;;3.53;3.22;;;49.30;43.60;;;;;;5024794;28;20045;-83
2022/08/05 11:01:14;;;;;;;13.35;3.58;;;48.50;43.80;;;;;;5028753;28;20123;-84
2022/08/05 11:03:59;;;;;;;5.72;3.28;;;47.90;44.40;;;;;;5025785;28;20021;-83
2022/08/05 11:06:25;;;;;;;4.95;3.45;;;47.90;44.10;;;;;;5007109;28;20041;-83
2022/08/05 11:09:17;;;;;;;6.18;3.40;;;48.50;43.80;;;;;;5024184;28;20084;-82
2022/08/05 11:11:45;;;;;;;5.55;3.60;;;48.00;44.20;;;;;;5024215;28;20042;-82
2022/08/05 11:14:12;;;;;;;6.78;3.63;;;49.00;43.40;;;;;;5023995;28;20085;-85
2022/08/05 11:16:38;;;;;;;6.43;3.35;;;49.10;43.00;;;;;;5023693;28;20330;-83
2022/08/05 11:19:27;;;;;;;4.53;3.40;;;48.90;42.90;;;;;;5023136;28;20125;-85
2022/08/05 11:21:55;;;;;;;4.85;3.25;;;47.70;43.50;;;;;;5024479;28;20065;-83
2022/08/05 11:24:22;;;;;;;7.72;3.50;;;48.10;43.40;;;;;;5007917;28;20018;-84
2022/08/05 11:26:49;;;;;;;7.03;3.42;;;49.10;43.00;;;;;;5006101;28;20033;-83
2022/08/05 11:29:41;;;;;;;10.05;3.30;;;50.20;42.50;;;;;;5010795;28;20093;-83
2022/08/05 11:32:27;;;;;;;7.47;3.17;;;50.60;41.70;;;;;;5010986;28;20474;-82
2022/08/05 11:34:54;;;;;;;3.88;3.13;;;50.30;41.80;;;;;;5024037;28;20069;-83
2022/08/05 11:37:38;;;;;;;4.88;3.60;;;49.90;42.20;;;;;;5023383;28;20076;-82
2022/08/05 11:40:05;;;;;;;5.68;3.58;;;49.50;42.10;;;;;;5024061;28;20406;-85
2022/08/05 11:42:35;;;;;;;5.32;3.20;;;48.50;42.50;;;;;;5026110;28;20021;-82
2022/08/05 11:45:05;;;;;;;14.85;4.25;;;48.30;42.70;;;;;;5021808;28;20082;-82
2022/08/05 11:47:35;;;;;;;4.18;3.60;;;47.70;43.10;;;;;;5039822;28;20061;-82
2022/08/05 11:50:02;;;;;;;6.30;3.90;;;47.00;43.60;;;;;;5006551;28;20041;-83
2022/08/05 11:52:28;;;;;;;4.10;3.70;;;47.30;43.30;;;;;;5031605;28;20034;-82
2022/08/05 11:54:55;;;;;;;5.45;3.20;;;48.30;42.90;;;;;;5034450;28;20106;-82
2022/08/05 11:57:27;;;;;;;6.15;3.70;;;48.50;42.50;;;;;;5034077;28;20030;-83
2022/08/05 11:59:54;;;;;;;4.22;3.50;;;48.70;42.40;;;;;;5017912;28;20030;-83
2022/08/05 12:02:30;;;;;;;6.80;3.70;;;48.40;42.40;;;;;;5006140;28;20037;-83
2022/08/05 12:04:57;;;;;;;5.70;3.58;;;48.10;42.70;;;;;;5028305;28;20091;-82
2022/08/05 12:07:23;;;;;;;4.07;3.60;;;49.10;42.30;;;;;;5028308;28;20025;-84
2022/08/05 12:09:54;;;;;;;7.78;4.00;;;49.80;41.80;;;;;;5029147;28;20034;-83
2022/08/05 12:12:26;;;;;;;7.20;3.60;;;49.70;41.30;;;;;;5028720;28;20026;-83
2022/08/05 12:14:52;;;;;;;4.45;3.60;;;50.40;41.30;;;;;;5015412;28;20042;-83
2022/08/05 12:17:19;;;;;;;6.80;3.67;;;51.40;40.60;;;;;;5032728;28;20041;-83
2022/08/05 12:19:46;;;;;;;4.57;3.75;;;52.00;40.40;;;;;;5032926;28;20037;-83
2022/08/05 12:22:14;;;;;;;5.32;3.80;;;53.10;39.80;;;;;;5033958;28;20086;-82
2022/08/05 12:24:45;;;;;;;4.28;3.88;;;53.30;39.50;;;;;;5033562;28;20029;-83
2022/08/05 12:27:22;;;;;;;4.50;4.10;;;53.20;39.30;;;;;;5033043;28;20034;-83
2022/08/05 12:30:09;;;;;;;4.70;3.60;;;52.60;39.10;;;;;;5014122;28;20398;-82
2022/08/05 12:32:47;;;;;;;4.70;3.90;;;51.40;39.60;;;;;;5031704;28;20038;-82
2022/08/05 12:35:14;;;;;;;7.47;3.50;;;51.30;39.70;;;;;;5027765;28;20045;-83
2022/08/05 12:37:41;;;;;;;11.20;4.35;;;51.10;39.70;;;;;;5034348;28;20033;-83
2022/08/05 12:40:09;;;;;;;7.10;3.65;;;51.50;39.30;;;;;;5034198;28;20029;-83
2022/08/05 12:42:35;;;;;;;3.92;3.53;;;52.40;39.00;;;;;;5032432;28;20048;-84
2022/08/05 12:45:09;;;;;;;7.82;3.90;;;52.40;38.90;;;;;;5025703;28;20026;-84
2022/08/05 12:47:35;;;;;;;9.43;3.25;;;52.20;38.90;;;;;;5011951;28;20029;-84
2022/08/05 12:50:13;;;;;;;4.53;3.17;;;51.20;38.60;;;;;;5016341;28;20487;-83
2022/08/05 12:52:38;;;;;;;4.70;3.42;;;51.80;38.70;;;;;;5042426;28;20040;-83
2022/08/05 12:55:23;;;;;;;7.88;3.08;;;52.00;38.20;;;;;;5029955;28;20030;-82
2022/08/05 12:57:50;;;;;;;3.78;3.35;;;51.80;38.50;;;;;;5055093;28;20040;-82